Time;durP1;ratioP1;P1;durP2;ratioP2;P2;SDS_P1;SDS_P2;PMS_P1;PMS_P2;Temp;Humidity;BMP_temperature;BMP_pressure;BME280_temperature;BME280_humidity;BME280_pressure;Samples;Min_cycle;Max_cycle;Signal;HPM_P1;HPM_P2
2022/03/02 00:02:22;;;;;;;14.38;6.63;;;;;;;;;;5098041;28;20101;-68
2022/03/02 00:04:48;;;;;;;12.90;7.07;;;;;;;;;;5098267;28;20376;-68
2022/03/02 00:07:14;;;;;;;9.85;6.25;;;;;;;;;;5077979;28;20035;-68
2022/03/02 00:09:40;;;;;;;11.82;6.63;;;;;;;;;;5098211;28;20020;-69
2022/03/02 00:12:06;;;;;;;14.07;6.93;;;;;;;;;;5076362;28;20412;-68
2022/03/02 00:14:32;;;;;;;12.00;6.93;;;;;;;;;;5078956;28;20046;-68
2022/03/02 00:16:58;;;;;;;11.00;6.53;;;;;;;;;;5079060;28;20100;-68
2022/03/02 00:19:25;;;;;;;13.40;7.80;;;;;;;;;;5081016;28;20472;-68
2022/03/02 00:21:50;;;;;;;14.02;6.18;;;;;;;;;;5080976;28;20469;-68
2022/03/02 00:24:16;;;;;;;13.55;6.40;;;;;;;;;;5093977;28;20043;-68
2022/03/02 00:26:43;;;;;;;12.82;7.25;;;;;;;;;;5096561;28;20131;-67
2022/03/02 00:29:09;;;;;;;12.25;6.43;;;;;;;;;;5080028;28;20139;-68
2022/03/02 00:31:35;;;;;;;10.65;6.60;;;;;;;;;;5098144;28;20103;-68
2022/03/02 00:34:01;;;;;;;14.55;7.68;;;;;;;;;;5097826;28;20066;-68
2022/03/02 00:36:27;;;;;;;11.68;7.00;;;;;;;;;;5096147;28;20496;-68
2022/03/02 00:38:53;;;;;;;11.27;6.53;;;;;;;;;;5087026;28;20035;-68
2022/03/02 00:41:19;;;;;;;11.57;6.47;;;;;;;;;;5097399;28;20036;-68
2022/03/02 00:43:48;;;;;;;11.80;6.53;;;;;;;;;;5079618;28;20072;-68
2022/03/02 00:46:14;;;;;;;12.80;6.45;;;;;;;;;;5075813;28;20397;-68
2022/03/02 00:48:40;;;;;;;11.30;7.10;;;;;;;;;;5083244;28;20035;-68
2022/03/02 00:51:06;;;;;;;13.50;6.93;;;;;;;;;;5093609;28;20063;-69
2022/03/02 00:53:32;;;;;;;13.60;6.20;;;;;;;;;;5078756;28;20024;-69
2022/03/02 00:55:59;;;;;;;12.07;6.28;;;;;;;;;;5079505;28;20071;-68
2022/03/02 00:58:25;;;;;;;12.30;6.28;;;;;;;;;;5079539;28;20077;-68
2022/03/02 01:00:50;;;;;;;11.68;7.03;;;;;;;;;;5097468;28;20023;-68
2022/03/02 01:03:16;;;;;;;16.48;7.07;;;;;;;;;;5076600;28;20428;-68
2022/03/02 01:05:42;;;;;;;12.02;7.00;;;;;;;;;;5103176;28;20063;-68
2022/03/02 01:08:08;;;;;;;13.13;6.57;;;;;;;;;;5096823;28;20397;-68
2022/03/02 01:10:34;;;;;;;11.93;6.63;;;;;;;;;;5097497;28;20085;-68
2022/03/02 01:13:00;;;;;;;15.07;6.85;;;;;;;;;;5096274;28;20036;-68
2022/03/02 01:15:26;;;;;;;15.25;7.30;;;;;;;;;;5094919;28;20103;-68
2022/03/02 01:17:52;;;;;;;10.93;6.72;;;;;;;;;;5094665;28;20123;-68
2022/03/02 01:20:18;;;;;;;14.18;8.00;;;;;;;;;;5096686;28;20047;-69
2022/03/02 01:22:44;;;;;;;11.75;6.57;;;;;;;;;;5097287;28;20024;-69
2022/03/02 01:25:11;;;;;;;10.82;6.53;;;;;;;;;;5096858;28;20063;-69
2022/03/02 01:27:37;;;;;;;13.55;6.70;;;;;;;;;;5095579;28;20427;-68
2022/03/02 01:30:04;;;;;;;12.52;6.80;;;;;;;;;;5091594;28;20091;-69
2022/03/02 01:32:31;;;;;;;14.23;7.85;;;;;;;;;;5095684;28;20032;-68
2022/03/02 01:34:57;;;;;;;10.57;6.43;;;;;;;;;;5077468;28;20085;-69
2022/03/02 01:37:23;;;;;;;11.50;6.53;;;;;;;;;;5079180;28;20052;-68
2022/03/02 01:39:49;;;;;;;11.88;6.20;;;;;;;;;;5092742;28;20119;-68
2022/03/02 01:42:15;;;;;;;11.50;6.78;;;;;;;;;;5073772;28;20701;-68
2022/03/02 01:44:41;;;;;;;12.23;6.93;;;;;;;;;;5076600;28;20189;-68
2022/03/02 01:47:07;;;;;;;11.60;6.35;;;;;;;;;;5078595;28;20035;-68
2022/03/02 01:49:34;;;;;;;12.25;7.10;;;;;;;;;;5078839;28;20105;-68
2022/03/02 01:52:01;;;;;;;13.10;6.75;;;;;;;;;;5096031;28;20032;-68
2022/03/02 01:54:27;;;;;;;14.18;7.15;;;;;;;;;;5076436;28;20462;-68
2022/03/02 01:56:53;;;;;;;10.32;5.80;;;;;;;;;;5093303;28;20024;-68
2022/03/02 01:59:19;;;;;;;10.38;5.80;;;;;;;;;;5077800;28;20036;-68
2022/03/02 02:01:45;;;;;;;9.52;5.82;;;;;;;;;;5078746;28;20519;-68
2022/03/02 02:04:11;;;;;;;11.98;6.50;;;;;;;;;;5078143;28;20028;-70
2022/03/02 02:06:37;;;;;;;12.43;6.53;;;;;;;;;;5094695;28;20495;-68
2022/03/02 02:09:06;;;;;;;12.40;6.78;;;;;;;;;;5073418;28;20063;-69
2022/03/02 02:11:32;;;;;;;11.45;6.38;;;;;;;;;;5077689;28;20024;-69
2022/03/02 02:13:59;;;;;;;10.98;5.78;;;;;;;;;;5095934;28;20028;-68
2022/03/02 02:16:25;;;;;;;10.07;6.32;;;;;;;;;;5077892;28;20093;-68
2022/03/02 02:18:54;;;;;;;11.10;6.10;;;;;;;;;;5077171;28;20084;-69
2022/03/02 02:21:20;;;;;;;12.88;6.43;;;;;;;;;;5075639;28;20491;-68
2022/03/02 02:23:47;;;;;;;10.15;6.35;;;;;;;;;;5075283;28;20028;-68
2022/03/02 02:26:13;;;;;;;10.70;5.30;;;;;;;;;;5085457;28;20498;-68
2022/03/02 02:28:40;;;;;;;11.50;5.80;;;;;;;;;;5099314;28;20052;-68
2022/03/02 02:31:06;;;;;;;11.13;5.75;;;;;;;;;;5078035;28;20138;-68
2022/03/02 02:33:32;;;;;;;12.48;5.95;;;;;;;;;;5076838;28;20051;-68
2022/03/02 02:35:59;;;;;;;11.43;5.00;;;;;;;;;;5072729;28;20408;-69
2022/03/02 02:38:25;;;;;;;12.43;6.35;;;;;;;;;;5085487;28;20084;-68
2022/03/02 02:40:51;;;;;;;9.88;5.22;;;;;;;;;;5097656;28;20028;-68
2022/03/02 02:43:18;;;;;;;14.85;6.60;;;;;;;;;;5096168;28;20083;-68
2022/03/02 02:45:45;;;;;;;11.77;6.30;;;;;;;;;;5106971;28;20028;-68
2022/03/02 02:48:11;;;;;;;11.48;6.00;;;;;;;;;;5074114;28;20373;-69
2022/03/02 02:50:37;;;;;;;10.90;6.05;;;;;;;;;;5076521;28;20020;-68
2022/03/02 02:53:11;;;;;;;11.13;6.25;;;;;;;;;;5077964;28;20120;-69
2022/03/02 02:55:38;;;;;;;10.27;6.18;;;;;;;;;;5095250;28;20043;-69
2022/03/02 02:58:05;;;;;;;12.63;6.85;;;;;;;;;;5096693;28;20020;-68
2022/03/02 03:00:33;;;;;;;12.77;6.30;;;;;;;;;;5076223;28;20070;-68
2022/03/02 03:03:00;;;;;;;11.88;6.57;;;;;;;;;;5073940;28;20039;-69
2022/03/02 03:05:29;;;;;;;13.23;6.20;;;;;;;;;;5075680;28;20614;-68
2022/03/02 03:07:55;;;;;;;10.68;5.88;;;;;;;;;;5077814;28;20471;-69
2022/03/02 03:10:22;;;;;;;12.75;6.22;;;;;;;;;;5095790;28;20145;-68
2022/03/02 03:12:48;;;;;;;11.65;6.28;;;;;;;;;;5077693;28;20115;-68
2022/03/02 03:15:15;;;;;;;12.05;6.35;;;;;;;;;;5074087;28;20036;-68
2022/03/02 03:17:42;;;;;;;10.90;5.70;;;;;;;;;;5093710;28;20389;-69
2022/03/02 03:20:09;;;;;;;9.32;5.80;;;;;;;;;;5076769;28;20032;-68
2022/03/02 03:22:35;;;;;;;13.18;6.05;;;;;;;;;;5077254;28;20100;-68
2022/03/02 03:25:02;;;;;;;11.65;6.25;;;;;;;;;;5095635;28;20106;-68
2022/03/02 03:27:28;;;;;;;10.95;5.80;;;;;;;;;;5074668;28;20028;-68
2022/03/02 03:29:54;;;;;;;11.43;6.68;;;;;;;;;;5074746;28;20051;-68
2022/03/02 03:32:20;;;;;;;12.20;7.13;;;;;;;;;;5094010;28;20077;-68
2022/03/02 03:34:46;;;;;;;12.80;5.97;;;;;;;;;;5095004;28;20035;-68
2022/03/02 03:37:12;;;;;;;10.88;6.00;;;;;;;;;;5076479;28;20555;-68
2022/03/02 03:39:38;;;;;;;10.05;5.97;;;;;;;;;;5087432;28;20111;-68
2022/03/02 03:42:04;;;;;;;9.90;5.78;;;;;;;;;;5090967;28;20031;-68
2022/03/02 03:44:30;;;;;;;12.35;5.95;;;;;;;;;;5076294;28;20028;-68
2022/03/02 03:46:56;;;;;;;10.63;6.55;;;;;;;;;;5076907;28;20516;-68
2022/03/02 03:49:22;;;;;;;11.00;5.97;;;;;;;;;;5077549;28;20060;-68
2022/03/02 03:51:48;;;;;;;13.20;6.18;;;;;;;;;;5097227;28;20047;-68
2022/03/02 03:54:14;;;;;;;11.05;5.90;;;;;;;;;;5094619;28;20482;-68
2022/03/02 03:56:40;;;;;;;12.43;6.28;;;;;;;;;;5097223;28;20044;-68
2022/03/02 03:59:08;;;;;;;10.75;6.10;;;;;;;;;;5098786;28;20093;-68
2022/03/02 04:01:34;;;;;;;10.75;6.20;;;;;;;;;;5101724;28;20147;-68
2022/03/02 04:04:00;;;;;;;10.48;5.68;;;;;;;;;;5089297;28;20369;-69
2022/03/02 04:06:26;;;;;;;11.43;5.78;;;;;;;;;;5078361;28;20367;-68
2022/03/02 04:08:52;;;;;;;12.43;6.07;;;;;;;;;;5095540;28;20028;-68
2022/03/02 04:11:18;;;;;;;12.07;6.65;;;;;;;;;;5088760;28;20024;-68
2022/03/02 04:13:44;;;;;;;12.48;6.63;;;;;;;;;;5101275;28;20389;-69
2022/03/02 04:16:11;;;;;;;11.85;6.25;;;;;;;;;;5097499;28;20036;-68
2022/03/02 04:18:37;;;;;;;12.77;5.68;;;;;;;;;;5097053;28;20019;-68
2022/03/02 04:21:03;;;;;;;10.75;6.25;;;;;;;;;;5075479;28;20032;-68
2022/03/02 04:23:30;;;;;;;11.68;6.28;;;;;;;;;;5079303;28;20028;-69
2022/03/02 04:25:56;;;;;;;10.90;6.05;;;;;;;;;;5080133;28;20473;-68
2022/03/02 04:28:22;;;;;;;10.30;5.30;;;;;;;;;;5072075;28;20087;-68
2022/03/02 04:30:48;;;;;;;13.63;6.63;;;;;;;;;;5056561;28;20970;-69
2022/03/02 04:33:14;;;;;;;11.35;5.63;;;;;;;;;;5065217;28;20031;-74
2022/03/02 04:35:41;;;;;;;10.50;5.80;;;;;;;;;;5055672;28;20048;-69
2022/03/02 04:38:07;;;;;;;10.48;6.07;;;;;;;;;;5073157;28;20047;-69
2022/03/02 04:40:34;;;;;;;10.68;6.10;;;;;;;;;;5075660;28;20120;-68
2022/03/02 04:43:00;;;;;;;14.02;5.68;;;;;;;;;;5080033;28;20031;-68
2022/03/02 04:45:29;;;;;;;12.32;6.05;;;;;;;;;;5080209;28;20031;-68
2022/03/02 04:47:56;;;;;;;11.38;6.32;;;;;;;;;;5078227;28;20043;-68
2022/03/02 04:50:22;;;;;;;12.68;6.10;;;;;;;;;;5080846;28;20021;-68
2022/03/02 04:52:49;;;;;;;12.45;5.72;;;;;;;;;;5081062;28;20454;-67
2022/03/02 04:55:16;;;;;;;8.88;4.97;;;;;;;;;;5080985;28;20068;-67
2022/03/02 04:57:47;;;;;;;11.07;5.88;;;;;;;;;;5077672;28;20031;-68
2022/03/02 05:00:15;;;;;;;10.77;5.53;;;;;;;;;;5075973;28;20016;-68
2022/03/02 05:02:41;;;;;;;11.00;5.60;;;;;;;;;;5080543;28;20020;-68
2022/03/02 05:05:09;;;;;;;11.45;6.35;;;;;;;;;;5079168;28;20031;-67
2022/03/02 05:07:35;;;;;;;8.55;5.28;;;;;;;;;;5080363;28;20111;-67
2022/03/02 05:10:01;;;;;;;13.57;5.55;;;;;;;;;;5080132;28;20025;-68
2022/03/02 05:12:28;;;;;;;11.88;5.57;;;;;;;;;;5080844;28;20035;-67
2022/03/02 05:14:54;;;;;;;11.45;5.82;;;;;;;;;;5073037;28;20484;-66
2022/03/02 05:17:20;;;;;;;9.05;5.57;;;;;;;;;;5074364;28;20028;-65
2022/03/02 05:19:46;;;;;;;9.68;5.85;;;;;;;;;;5079367;28;20067;-67
2022/03/02 05:22:12;;;;;;;9.35;5.68;;;;;;;;;;5079993;28;20028;-67
2022/03/02 05:24:38;;;;;;;13.30;5.70;;;;;;;;;;5080124;28;20060;-66
2022/03/02 05:27:05;;;;;;;10.75;5.65;;;;;;;;;;5080967;28;20033;-67
2022/03/02 05:29:32;;;;;;;10.27;5.78;;;;;;;;;;5070488;28;20055;-67
2022/03/02 05:31:58;;;;;;;11.68;6.03;;;;;;;;;;5095671;28;20130;-73
2022/03/02 05:34:24;;;;;;;11.82;6.00;;;;;;;;;;5095742;28;20031;-73
2022/03/02 05:36:50;;;;;;;10.98;6.30;;;;;;;;;;5096336;28;20047;-67
2022/03/02 05:39:16;;;;;;;11.50;5.97;;;;;;;;;;5104225;28;20051;-67
2022/03/02 05:41:42;;;;;;;10.95;5.90;;;;;;;;;;5095221;28;20028;-70
2022/03/02 05:44:08;;;;;;;10.60;6.00;;;;;;;;;;5076863;28;20152;-71
2022/03/02 05:46:35;;;;;;;11.38;6.35;;;;;;;;;;5096538;28;20035;-71
2022/03/02 05:49:02;;;;;;;13.60;6.38;;;;;;;;;;5096295;28;20042;-70
2022/03/02 05:51:28;;;;;;;12.63;5.38;;;;;;;;;;5094533;28;20028;-70
2022/03/02 05:53:54;;;;;;;11.45;5.90;;;;;;;;;;5075424;28;20039;-70
2022/03/02 05:56:20;;;;;;;12.90;6.10;;;;;;;;;;5095176;28;20036;-70
2022/03/02 05:58:46;;;;;;;10.27;5.65;;;;;;;;;;5095778;28;20028;-70
2022/03/02 06:01:12;;;;;;;10.23;5.28;;;;;;;;;;5096415;28;20443;-69
2022/03/02 06:03:38;;;;;;;12.23;6.07;;;;;;;;;;5095926;28;20030;-68
2022/03/02 06:06:05;;;;;;;11.23;6.40;;;;;;;;;;5091653;28;20042;-70
2022/03/02 06:08:31;;;;;;;11.00;5.97;;;;;;;;;;5095810;28;20036;-69
2022/03/02 06:10:57;;;;;;;13.10;6.25;;;;;;;;;;5095836;28;20054;-69
2022/03/02 06:13:23;;;;;;;11.45;6.13;;;;;;;;;;5095476;28;20533;-69
2022/03/02 06:15:49;;;;;;;15.75;6.10;;;;;;;;;;5077107;28;20696;-69
2022/03/02 06:18:15;;;;;;;10.88;6.30;;;;;;;;;;5091958;28;20036;-69
2022/03/02 06:20:42;;;;;;;12.73;6.45;;;;;;;;;;5094123;28;20024;-69
2022/03/02 06:23:08;;;;;;;13.43;7.00;;;;;;;;;;5096542;28;20016;-68
2022/03/02 06:25:35;;;;;;;11.38;6.47;;;;;;;;;;5095472;28;20036;-68
2022/03/02 06:28:01;;;;;;;15.65;8.15;;;;;;;;;;5095532;28;20034;-68
2022/03/02 06:30:27;;;;;;;12.20;6.60;;;;;;;;;;5093795;28;20035;-69
2022/03/02 06:32:53;;;;;;;12.43;6.13;;;;;;;;;;5075064;28;20495;-69
2022/03/02 06:35:19;;;;;;;11.90;7.00;;;;;;;;;;5085613;28;20024;-70
2022/03/02 06:37:46;;;;;;;13.75;6.90;;;;;;;;;;5084633;28;20027;-68
2022/03/02 06:40:13;;;;;;;13.70;7.47;;;;;;;;;;5102558;28;20020;-68
2022/03/02 06:42:39;;;;;;;13.68;7.78;;;;;;;;;;5095469;28;20054;-68
2022/03/02 06:45:11;;;;;;;13.38;6.80;;;;;;;;;;5073268;28;20039;-69
2022/03/02 06:47:51;;;;;;;11.43;6.53;;;;;;;;;;5106327;28;20018;-68
2022/03/02 06:50:21;;;;;;;11.55;6.25;;;;;;;;;;5078913;28;20426;-69
2022/03/02 06:52:49;;;;;;;11.45;5.82;;;;;;;;;;5076921;28;20028;-68
2022/03/02 06:55:16;;;;;;;10.25;5.70;;;;;;;;;;5096521;28;20472;-69
2022/03/02 06:57:46;;;;;;;11.82;6.20;;;;;;;;;;5108067;28;20028;-69
2022/03/02 07:00:16;;;;;;;11.70;6.60;;;;;;;;;;5090930;28;20023;-68
2022/03/02 07:02:53;;;;;;;13.70;6.80;;;;;;;;;;5075483;28;20036;-69
2022/03/02 07:05:19;;;;;;;10.02;5.80;;;;;;;;;;5094588;28;20389;-71
2022/03/02 07:07:46;;;;;;;10.07;5.57;;;;;;;;;;5095397;28;20024;-71
2022/03/02 07:10:12;;;;;;;9.88;5.18;;;;;;;;;;5094846;28;20074;-71
2022/03/02 07:12:39;;;;;;;9.88;4.93;;;;;;;;;;5076859;28;20028;-70
2022/03/02 07:15:05;;;;;;;10.50;6.03;;;;;;;;;;5073838;28;20042;-70
2022/03/02 07:17:32;;;;;;;10.25;5.75;;;;;;;;;;5105831;28;20028;-72
2022/03/02 07:20:01;;;;;;;11.90;6.30;;;;;;;;;;5096587;28;20090;-72
2022/03/02 07:22:31;;;;;;;11.48;5.93;;;;;;;;;;5074489;28;20020;-69
2022/03/02 07:25:03;;;;;;;11.73;6.25;;;;;;;;;;5078407;28;20031;-70
2022/03/02 07:27:30;;;;;;;8.68;5.68;;;;;;;;;;5097494;27;20073;-68
2022/03/02 07:29:56;;;;;;;9.73;5.45;;;;;;;;;;5111546;28;20515;-67
2022/03/02 07:32:30;;;;;;;9.27;5.00;;;;;;;;;;5097147;28;20035;-69
2022/03/02 07:34:58;;;;;;;7.82;5.35;;;;;;;;;;5098433;28;20442;-69
2022/03/02 07:37:25;;;;;;;9.20;5.35;;;;;;;;;;5099526;28;20046;-69
2022/03/02 07:39:51;;;;;;;9.05;5.50;;;;;;;;;;5107614;28;20039;-69
2022/03/02 07:42:17;;;;;;;9.73;5.65;;;;;;;;;;5094480;28;20407;-66
2022/03/02 07:44:43;;;;;;;8.57;5.22;;;;;;;;;;5077966;28;20027;-69
2022/03/02 07:47:09;;;;;;;10.30;5.53;;;;;;;;;;5098467;28;20031;-69
2022/03/02 07:49:36;;;;;;;8.27;5.60;;;;;;;;;;5097665;28;20059;-68
2022/03/02 07:52:05;;;;;;;10.73;6.90;;;;;;;;;;5096908;28;20019;-69
2022/03/02 07:54:32;;;;;;;11.20;7.18;;;;;;;;;;5104514;28;20022;-69
2022/03/02 07:56:59;;;;;;;11.23;6.88;;;;;;;;;;5092704;28;20043;-69
2022/03/02 07:59:25;;;;;;;10.57;6.43;;;;;;;;;;5093101;28;20023;-69
2022/03/02 08:01:52;;;;;;;8.80;6.30;;;;;;;;;;5110271;28;20031;-69
2022/03/02 08:04:18;;;;;;;9.90;6.40;;;;;;;;;;5093776;28;20023;-69
2022/03/02 08:06:44;;;;;;;9.50;5.43;;;;;;;;;;5094190;28;20034;-69
2022/03/02 08:09:11;;;;;;;13.88;5.35;;;;;;;;;;5111288;28;20495;-69
2022/03/02 08:11:38;;;;;;;8.50;5.85;;;;;;;;;;5111880;28;20030;-73
2022/03/02 08:14:04;;;;;;;10.68;6.35;;;;;;;;;;5097514;28;20154;-67
2022/03/02 08:16:31;;;;;;;11.23;6.50;;;;;;;;;;5098951;28;20071;-71
2022/03/02 08:18:58;;;;;;;9.82;6.05;;;;;;;;;;5080823;28;20043;-68
2022/03/02 08:21:27;;;;;;;12.90;7.30;;;;;;;;;;5095358;28;20761;-69
2022/03/02 08:23:56;;;;;;;13.05;7.00;;;;;;;;;;5095113;28;20344;-73
2022/03/02 08:26:23;;;;;;;10.55;6.80;;;;;;;;;;5079189;28;20027;-67
2022/03/02 08:28:51;;;;;;;9.80;7.07;;;;;;;;;;5103165;28;20138;-69
2022/03/02 08:31:17;;;;;;;9.25;6.32;;;;;;;;;;5085438;28;20016;-70
2022/03/02 08:33:45;;;;;;;10.90;6.22;;;;;;;;;;5088886;28;20488;-68
2022/03/02 08:36:12;;;;;;;9.02;6.30;;;;;;;;;;5092374;28;20548;-67
2022/03/02 08:38:42;;;;;;;9.25;6.35;;;;;;;;;;5108846;28;20503;-68
2022/03/02 08:41:10;;;;;;;11.43;6.30;;;;;;;;;;5097432;28;20027;-70
2022/03/02 08:43:36;;;;;;;9.27;5.90;;;;;;;;;;5097154;28;20024;-69
2022/03/02 08:46:04;;;;;;;7.90;5.60;;;;;;;;;;5094767;28;20103;-68
2022/03/02 08:48:30;;;;;;;10.52;5.97;;;;;;;;;;5096095;28;20028;-68
2022/03/02 08:50:57;;;;;;;8.98;5.63;;;;;;;;;;5093963;28;20027;-68
2022/03/02 08:53:25;;;;;;;7.75;5.32;;;;;;;;;;5096604;28;20095;-68
2022/03/02 08:55:51;;;;;;;9.45;5.30;;;;;;;;;;5079156;28;20086;-68
2022/03/02 08:58:18;;;;;;;8.07;5.35;;;;;;;;;;5105026;28;20080;-70
2022/03/02 09:00:45;;;;;;;7.70;5.28;;;;;;;;;;5100335;27;20431;-68
2022/03/02 09:03:15;;;;;;;8.95;5.60;;;;;;;;;;5094560;27;20586;-67
2022/03/02 09:05:42;;;;;;;10.18;5.35;;;;;;;;;;5107938;28;20032;-67
2022/03/02 09:08:08;;;;;;;10.38;5.05;;;;;;;;;;5101504;28;20030;-68
2022/03/02 09:10:35;;;;;;;7.15;4.22;;;;;;;;;;5096121;28;20028;-67
2022/03/02 09:13:02;;;;;;;10.02;4.55;;;;;;;;;;5091564;28;20114;-67
2022/03/02 09:15:28;;;;;;;6.80;3.92;;;;;;;;;;5090987;28;20036;-67
2022/03/02 09:17:54;;;;;;;6.72;4.43;;;;;;;;;;5089835;28;20483;-67
2022/03/02 09:20:21;;;;;;;8.13;4.32;;;;;;;;;;5091209;28;20028;-67
2022/03/02 09:22:47;;;;;;;7.85;4.38;;;;;;;;;;5091476;28;20035;-66
2022/03/02 09:25:13;;;;;;;6.72;4.40;;;;;;;;;;5091730;28;20492;-67
2022/03/02 09:27:40;;;;;;;7.30;4.20;;;;;;;;;;5091515;28;20031;-66
2022/03/02 09:30:08;;;;;;;7.97;4.47;;;;;;;;;;5087875;28;20173;-66
2022/03/02 09:32:34;;;;;;;8.02;4.38;;;;;;;;;;5090621;28;20485;-66
2022/03/02 09:35:00;;;;;;;7.03;4.72;;;;;;;;;;5090938;28;20071;-66
2022/03/02 09:37:28;;;;;;;9.55;4.75;;;;;;;;;;5093301;28;20062;-66
2022/03/02 09:39:54;;;;;;;6.57;4.20;;;;;;;;;;5102236;28;20024;-65
2022/03/02 09:42:30;;;;;;;8.55;3.88;;;;;;;;;;5088726;28;20392;-65
2022/03/02 09:45:06;;;;;;;7.35;4.20;;;;;;;;;;5087644;27;20016;-64
2022/03/02 09:47:43;;;;;;;8.85;4.53;;;;;;;;;;5095204;28;20032;-66
2022/03/02 09:50:10;;;;;;;8.68;4.90;;;;;;;;;;5095750;28;20024;-66
2022/03/02 09:52:38;;;;;;;7.45;4.32;;;;;;;;;;5095963;28;20032;-66
2022/03/02 09:55:08;;;;;;;8.40;4.35;;;;;;;;;;5077028;28;20036;-66
2022/03/02 09:57:35;;;;;;;7.93;3.92;;;;;;;;;;5094503;28;20035;-66
2022/03/02 10:00:01;;;;;;;8.75;4.53;;;;;;;;;;5074726;28;20040;-66
2022/03/02 10:02:30;;;;;;;6.63;4.07;;;;;;;;;;5096051;28;20107;-66
2022/03/02 10:04:58;;;;;;;6.35;3.88;;;;;;;;;;5095195;28;20074;-66
2022/03/02 10:07:28;;;;;;;5.65;3.67;;;;;;;;;;5096097;28;20388;-66
2022/03/02 10:10:22;;;;;;;7.30;3.83;;;;;;;;;;5078688;28;20028;-66
2022/03/02 10:12:48;;;;;;;10.10;4.30;;;;;;;;;;5071058;28;20136;-66
2022/03/02 10:15:15;;;;;;;5.35;3.30;;;;;;;;;;5107521;28;20098;-66
2022/03/02 10:17:43;;;;;;;6.80;4.10;;;;;;;;;;5076316;28;20036;-69
2022/03/02 10:20:14;;;;;;;6.10;3.85;;;;;;;;;;5074092;28;20094;-66
2022/03/02 10:22:40;;;;;;;6.07;3.50;;;;;;;;;;5095748;28;20020;-66
2022/03/02 10:25:10;;;;;;;8.13;3.78;;;;;;;;;;5078036;28;20157;-66
2022/03/02 10:27:55;;;;;;;7.65;3.83;;;;;;;;;;5102303;28;20020;-66
2022/03/02 10:30:21;;;;;;;7.22;3.58;;;;;;;;;;5074611;28;20036;-66
2022/03/02 10:32:49;;;;;;;11.27;3.90;;;;;;;;;;5074937;28;20073;-66
2022/03/02 10:35:21;;;;;;;5.68;3.35;;;;;;;;;;5105458;28;20026;-66
2022/03/02 10:37:58;;;;;;;7.13;4.03;;;;;;;;;;5102142;28;20072;-66
2022/03/02 10:40:24;;;;;;;5.10;3.63;;;;;;;;;;5101904;28;20052;-67
2022/03/02 10:42:57;;;;;;;6.22;3.33;;;;;;;;;;5077919;28;20356;-66
2022/03/02 10:45:27;;;;;;;8.98;3.70;;;;;;;;;;5092591;28;20145;-66
2022/03/02 10:47:55;;;;;;;7.07;3.50;;;;;;;;;;5074500;28;20016;-66
2022/03/02 10:50:22;;;;;;;7.25;3.67;;;;;;;;;;5095117;28;20024;-66
2022/03/02 10:52:48;;;;;;;7.65;3.67;;;;;;;;;;5077773;28;20036;-66
2022/03/02 10:55:15;;;;;;;7.45;4.15;;;;;;;;;;5077859;28;20028;-66
2022/03/02 10:57:41;;;;;;;6.57;3.38;;;;;;;;;;5078155;28;20030;-66
2022/03/02 11:00:13;;;;;;;7.50;3.80;;;;;;;;;;5093118;28;20020;-65
2022/03/02 11:02:41;;;;;;;7.70;3.42;;;;;;;;;;5110759;28;20016;-65
2022/03/02 11:05:09;;;;;;;8.68;4.20;;;;;;;;;;5109017;28;20023;-65
2022/03/02 11:07:35;;;;;;;6.78;4.05;;;;;;;;;;5086468;28;20556;-65
2022/03/02 11:10:02;;;;;;;6.63;3.42;;;;;;;;;;5099130;28;20032;-66
2022/03/02 11:12:30;;;;;;;7.15;3.83;;;;;;;;;;5111074;28;20039;-66
2022/03/02 11:14:57;;;;;;;7.35;3.55;;;;;;;;;;5078563;28;20031;-66
2022/03/02 11:17:23;;;;;;;8.90;4.75;;;;;;;;;;5099020;28;20074;-65
2022/03/02 11:19:49;;;;;;;8.35;4.30;;;;;;;;;;5099336;28;20288;-66
2022/03/02 11:22:17;;;;;;;9.75;4.57;;;;;;;;;;5099762;28;20048;-66
2022/03/02 11:24:44;;;;;;;8.77;5.10;;;;;;;;;;5099055;28;20358;-65
2022/03/02 11:27:30;;;;;;;9.30;5.15;;;;;;;;;;5095489;28;20027;-65
2022/03/02 11:30:02;;;;;;;8.73;5.30;;;;;;;;;;5110862;28;20071;-65
2022/03/02 11:32:29;;;;;;;9.07;4.90;;;;;;;;;;5080167;28;20074;-66
2022/03/02 11:35:00;;;;;;;8.05;4.53;;;;;;;;;;5098951;28;20034;-66
2022/03/02 11:37:28;;;;;;;7.13;4.40;;;;;;;;;;5100024;28;20081;-66
2022/03/02 11:39:54;;;;;;;7.32;4.97;;;;;;;;;;5093985;28;20414;-66
2022/03/02 11:42:27;;;;;;;9.15;5.15;;;;;;;;;;5095284;28;20032;-65
2022/03/02 11:44:55;;;;;;;9.13;5.10;;;;;;;;;;5096543;28;20546;-66
2022/03/02 11:47:21;;;;;;;;;;;;;;;;;;5080510;28;20119;-65
2022/03/02 11:49:51;;;;;;;8.20;4.68;;;;;;;;;;5099386;28;19986;-66
2022/03/02 11:52:21;;;;;;;8.13;4.85;;;;;;;;;;5098802;28;20098;-66
2022/03/02 11:54:51;;;;;;;9.25;5.35;;;;;;;;;;5098754;28;20016;-65
2022/03/02 11:57:18;;;;;;;9.00;4.97;;;;;;;;;;5094961;28;20036;-67
2022/03/02 11:59:45;;;;;;;8.05;4.68;;;;;;;;;;5096547;28;20027;-65
2022/03/02 12:02:21;;;;;;;7.28;4.50;;;;;;;;;;5099158;28;20028;-68
2022/03/02 12:05:20;;;;;;;7.57;4.47;;;;;;;;;;5098446;28;20486;-66
2022/03/02 12:07:47;;;;;;;8.45;5.03;;;;;;;;;;5042543;28;20440;-66
2022/03/02 12:10:20;;;;;;;6.77;4.47;;;;;;;;;;5083433;28;20016;-66
2022/03/02 12:12:46;;;;;;;7.88;4.47;;;;;;;;;;5097294;28;20027;-66
2022/03/02 12:15:13;;;;;;;10.60;4.68;;;;;;;;;;5075847;28;20026;-66
2022/03/02 12:17:39;;;;;;;8.07;4.50;;;;;;;;;;5097697;28;20032;-65
2022/03/02 12:20:11;;;;;;;5.60;4.10;;;;;;;;;;5097959;28;20448;-67
2022/03/02 12:22:42;;;;;;;6.97;4.47;;;;;;;;;;5098071;28;20703;-66
2022/03/02 12:25:12;;;;;;;6.88;4.43;;;;;;;;;;5098020;28;20065;-66
2022/03/02 12:27:38;;;;;;;8.85;4.72;;;;;;;;;;5108212;28;20031;-65
2022/03/02 12:30:07;;;;;;;7.75;4.82;;;;;;;;;;5110030;28;20047;-66
2022/03/02 12:32:34;;;;;;;9.50;4.68;;;;;;;;;;5097273;28;20062;-66
2022/03/02 12:35:01;;;;;;;8.55;4.68;;;;;;;;;;5079726;28;20058;-66
2022/03/02 12:37:28;;;;;;;7.88;4.75;;;;;;;;;;5099102;28;20028;-66
2022/03/02 12:39:54;;;;;;;7.13;4.65;;;;;;;;;;5108317;28;20135;-66
2022/03/02 12:42:20;;;;;;;7.07;4.47;;;;;;;;;;5094283;28;20024;-66
2022/03/02 12:44:50;;;;;;;6.18;3.88;;;;;;;;;;5077199;28;20115;-66
2022/03/02 12:47:18;;;;;;;5.30;3.65;;;;;;;;;;5107889;28;20153;-66
2022/03/02 12:49:45;;;;;;;6.90;3.90;;;;;;;;;;5100361;28;20039;-66
2022/03/02 12:52:12;;;;;;;6.00;3.67;;;;;;;;;;5098185;27;20031;-67
2022/03/02 12:54:40;;;;;;;5.28;3.22;;;;;;;;;;5087224;28;20045;-66
2022/03/02 12:57:06;;;;;;;;;;;;;;;;;;5086111;28;20039;-65
2022/03/02 12:59:32;;;;;;;6.95;3.10;;;;;;;;;;5088683;28;19915;-67
2022/03/02 13:02:00;;;;;;;6.32;3.60;;;;;;;;;;5096366;28;20127;-66
2022/03/02 13:04:37;;;;;;;5.15;3.15;;;;;;;;;;5094472;28;20043;-66
2022/03/02 13:07:10;;;;;;;5.65;3.55;;;;;;;;;;5089664;28;20042;-66
2022/03/02 13:09:38;;;;;;;5.63;3.58;;;;;;;;;;5101457;28;20043;-66
2022/03/02 13:12:04;;;;;;;;;;;;;;;;;;5070269;28;20032;-66
2022/03/02 13:14:34;;;;;;;7.60;3.85;;;;;;;;;;5110359;27;19908;-65
2022/03/02 13:17:15;;;;;;;5.38;3.40;;;;;;;;;;5093251;28;20400;-68
2022/03/02 13:19:51;;;;;;;5.40;3.63;;;;;;;;;;5096456;28;20020;-68
2022/03/02 13:22:26;;;;;;;6.65;3.45;;;;;;;;;;5079049;28;20114;-68
2022/03/02 13:24:53;;;;;;;5.47;3.40;;;;;;;;;;5096936;28;20088;-68
2022/03/02 13:27:20;;;;;;;8.35;3.80;;;;;;;;;;5093077;28;20020;-71
2022/03/02 13:29:58;;;;;;;5.85;3.78;;;;;;;;;;5094451;28;20048;-69
2022/03/02 13:32:44;;;;;;;7.22;4.07;;;;;;;;;;5077585;28;20055;-69
2022/03/02 13:35:11;;;;;;;6.50;3.97;;;;;;;;;;5096890;28;20062;-69
2022/03/02 13:37:54;;;;;;;5.97;3.53;;;;;;;;;;5101028;28;20098;-69
2022/03/02 13:40:33;;;;;;;10.07;3.95;;;;;;;;;;5099823;28;20099;-68
2022/03/02 13:43:02;;;;;;;6.47;3.72;;;;;;;;;;5096020;28;20031;-69
2022/03/02 13:45:28;;;;;;;7.53;4.20;;;;;;;;;;5075859;28;20130;-69
2022/03/02 13:48:13;;;;;;;6.53;3.90;;;;;;;;;;5108661;28;20062;-70
2022/03/02 13:50:55;;;;;;;8.07;3.92;;;;;;;;;;5091701;28;20058;-67
2022/03/02 13:53:33;;;;;;;7.65;3.95;;;;;;;;;;5106510;28;20028;-67
2022/03/02 13:56:07;;;;;;;7.00;3.78;;;;;;;;;;5097191;28;20072;-69
2022/03/02 13:58:34;;;;;;;6.15;3.78;;;;;;;;;;5097785;28;20024;-68
2022/03/02 14:01:15;;;;;;;6.35;3.95;;;;;;;;;;5105900;28;20032;-68
2022/03/02 14:03:45;;;;;;;6.55;4.10;;;;;;;;;;5077583;28;20110;-69
2022/03/02 14:06:12;;;;;;;6.95;3.80;;;;;;;;;;5106807;27;20460;-69
2022/03/02 14:08:56;;;;;;;5.88;3.85;;;;;;;;;;5107118;28;20102;-68
2022/03/02 14:11:32;;;;;;;5.63;3.72;;;;;;;;;;5093213;28;20032;-68
2022/03/02 14:13:58;;;;;;;6.32;4.13;;;;;;;;;;5093429;28;20031;-68
2022/03/02 14:16:24;;;;;;;5.97;3.90;;;;;;;;;;5094637;28;20477;-68
2022/03/02 14:19:04;;;;;;;6.68;4.13;;;;;;;;;;5094736;28;20544;-68
2022/03/02 14:21:30;;;;;;;6.60;3.78;;;;;;;;;;5093306;28;20100;-68
2022/03/02 14:23:56;;;;;;;6.22;3.83;;;;;;;;;;5090940;28;20020;-68
2022/03/02 14:26:22;;;;;;;7.00;4.15;;;;;;;;;;5094142;28;20107;-67
2022/03/02 14:28:49;;;;;;;6.38;4.10;;;;;;;;;;5093612;28;20055;-69
2022/03/02 14:31:15;;;;;;;9.50;5.10;;;;;;;;;;5095753;28;20027;-67
2022/03/02 14:33:41;;;;;;;7.53;4.60;;;;;;;;;;5105650;28;20105;-68
2022/03/02 14:36:16;;;;;;;7.80;5.03;;;;;;;;;;5088655;28;20032;-68
2022/03/02 14:38:42;;;;;;;7.45;4.80;;;;;;;;;;5104270;28;20020;-68
2022/03/02 14:41:08;;;;;;;8.20;5.55;;;;;;;;;;5093901;28;20039;-68